TimeEDT,TemperatureF,Dew PointF,Humidity,Sea Level PressureIn,VisibilityMPH,Wind Direction,Wind SpeedMPH,Gust SpeedMPH,PrecipitationIn,Events,Conditions,WindDirDegrees,DateUTC
12:53 AM,48.0,44.1,86,30.01,10.0,Calm,Calm,-,N/A,,Clear,0,2013-09-26 04:53:00
1:53 AM,46.9,42.1,83,30.02,10.0,Calm,Calm,-,N/A,,Clear,0,2013-09-26 05:53:00
2:53 AM,45.0,42.1,90,30.02,10.0,Calm,Calm,-,N/A,,Clear,0,2013-09-26 06:53:00
3:53 AM,44.1,41.0,89,30.03,10.0,Calm,Calm,-,N/A,,Clear,0,2013-09-26 07:53:00
4:53 AM,44.1,41.0,89,30.03,10.0,Calm,Calm,-,N/A,,Clear,0,2013-09-26 08:53:00
5:53 AM,44.1,39.9,85,30.05,10.0,Calm,Calm,-,N/A,,Clear,0,2013-09-26 09:53:00
6:53 AM,43.0,39.9,89,30.06,10.0,Calm,Calm,-,N/A,,Clear,0,2013-09-26 10:53:00
6:59 AM,42.8,39.2,87,30.05,10.0,Calm,Calm,-,N/A,,Scattered Clouds,0,2013-09-26 10:59:00
7:53 AM,44.1,42.1,93,30.09,10.0,Calm,Calm,-,N/A,,Scattered Clouds,0,2013-09-26 11:53:00
8:53 AM,52.0,46.0,80,30.10,10.0,Calm,Calm,-,N/A,,Mostly Cloudy,0,2013-09-26 12:53:00
9:53 AM,60.1,46.9,62,30.11,10.0,Calm,Calm,-,N/A,,Mostly Cloudy,0,2013-09-26 13:53:00
10:53 AM,63.0,45.0,52,30.12,10.0,Calm,Calm,-,N/A,,Mostly Cloudy,0,2013-09-26 14:53:00
11:53 AM,66.0,46.0,48,30.11,10.0,NNE,4.6,-,N/A,,Scattered Clouds,20,2013-09-26 15:53:00
12:53 PM,68.0,50.0,52,30.11,10.0,Variable,6.9,-,N/A,,Scattered Clouds,0,2013-09-26 16:53:00
1:53 PM,69.1,51.1,53,30.10,10.0,NE,9.2,-,N/A,,Scattered Clouds,50,2013-09-26 17:53:00
2:53 PM,70.0,51.1,51,30.09,10.0,NE,10.4,-,N/A,,Scattered Clouds,40,2013-09-26 18:53:00
3:53 PM,69.1,52.0,54,30.09,10.0,North,6.9,-,N/A,,Scattered Clouds,350,2013-09-26 19:53:00
4:53 PM,68.0,50.0,52,30.11,10.0,NE,11.5,-,N/A,,Scattered Clouds,40,2013-09-26 20:53:00
5:53 PM,66.9,48.9,52,30.12,10.0,NE,9.2,-,N/A,,Scattered Clouds,40,2013-09-26 21:53:00
6:53 PM,63.0,50.0,63,30.13,10.0,NE,4.6,-,N/A,,Scattered Clouds,40,2013-09-26 22:53:00
7:53 PM,60.1,48.9,67,30.13,10.0,ENE,3.5,-,N/A,,Clear,70,2013-09-26 23:53:00
8:53 PM,55.9,48.9,77,30.14,10.0,Calm,Calm,-,N/A,,Clear,0,2013-09-27 00:53:00
9:53 PM,52.0,48.0,86,30.15,10.0,Calm,Calm,-,N/A,,Clear,0,2013-09-27 01:53:00
10:53 PM,53.1,48.9,86,30.16,10.0,ENE,3.5,-,N/A,,Clear,70,2013-09-27 02:53:00
11:53 PM,52.0,48.0,86,30.17,10.0,East,4.6,-,N/A,,Clear,80,2013-09-27 03:53:00